sensor_id;sensor_type;location;lat;lon;timestamp;temperature;humidity
21001;DHT22;10658;50.920;12.238;2023-06-14T00:08:15;12.70;99.90
21001;DHT22;10658;50.920;12.238;2023-06-14T00:12:16;12.60;99.90
21001;DHT22;10658;50.920;12.238;2023-06-14T00:16:17;12.40;99.90
21001;DHT22;10658;50.920;12.238;2023-06-14T00:20:18;12.40;99.90
21001;DHT22;10658;50.920;12.238;2023-06-14T00:24:19;12.60;99.90
21001;DHT22;10658;50.920;12.238;2023-06-14T00:28:20;12.60;99.90
21001;DHT22;10658;50.920;12.238;2023-06-14T00:32:21;12.60;99.90
21001;DHT22;10658;50.920;12.238;2023-06-14T00:36:26;12.60;99.90
21001;DHT22;10658;50.920;12.238;2023-06-14T00:40:26;12.50;99.90
21001;DHT22;10658;50.920;12.238;2023-06-14T00:44:27;12.50;99.90
21001;DHT22;10658;50.920;12.238;2023-06-14T00:48:28;12.50;99.90
21001;DHT22;10658;50.920;12.238;2023-06-14T00:52:30;12.30;99.90
21001;DHT22;10658;50.920;12.238;2023-06-14T00:56:32;12.00;99.90
21001;DHT22;10658;50.920;12.238;2023-06-14T01:00:33;11.70;99.90
21001;DHT22;10658;50.920;12.238;2023-06-14T01:04:34;11.50;99.90
21001;DHT22;10658;50.920;12.238;2023-06-14T01:08:48;11.50;99.90
21001;DHT22;10658;50.920;12.238;2023-06-14T01:13:21;11.60;99.90
21001;DHT22;10658;50.920;12.238;2023-06-14T01:17:24;11.70;99.90
21001;DHT22;10658;50.920;12.238;2023-06-14T01:21:27;11.80;99.90
21001;DHT22;10658;50.920;12.238;2023-06-14T01:25:29;11.80;99.90
21001;DHT22;10658;50.920;12.238;2023-06-14T01:29:29;11.80;99.90
21001;DHT22;10658;50.920;12.238;2023-06-14T01:33:34;11.70;99.90
21001;DHT22;10658;50.920;12.238;2023-06-14T01:37:36;11.70;99.90
21001;DHT22;10658;50.920;12.238;2023-06-14T01:41:38;11.90;99.90
21001;DHT22;10658;50.920;12.238;2023-06-14T01:45:46;11.90;99.90
21001;DHT22;10658;50.920;12.238;2023-06-14T01:49:47;11.90;99.90
21001;DHT22;10658;50.920;12.238;2023-06-14T01:53:48;11.80;99.90
21001;DHT22;10658;50.920;12.238;2023-06-14T01:57:49;11.70;99.90
21001;DHT22;10658;50.920;12.238;2023-06-14T02:01:50;11.70;99.90
21001;DHT22;10658;50.920;12.238;2023-06-14T02:05:51;11.70;99.90
21001;DHT22;10658;50.920;12.238;2023-06-14T02:09:52;11.40;99.90
21001;DHT22;10658;50.920;12.238;2023-06-14T02:13:52;11.30;99.90
21001;DHT22;10658;50.920;12.238;2023-06-14T02:17:53;11.10;99.90
21001;DHT22;10658;50.920;12.238;2023-06-14T02:21:54;11.00;99.90
21001;DHT22;10658;50.920;12.238;2023-06-14T02:25:55;11.00;99.90
21001;DHT22;10658;50.920;12.238;2023-06-14T02:29:56;10.80;99.90
21001;DHT22;10658;50.920;12.238;2023-06-14T02:33:57;10.80;99.90
21001;DHT22;10658;50.920;12.238;2023-06-14T02:37:58;10.70;99.90
21001;DHT22;10658;50.920;12.238;2023-06-14T02:41:59;10.70;99.90
21001;DHT22;10658;50.920;12.238;2023-06-14T02:46:01;10.60;99.90
21001;DHT22;10658;50.920;12.238;2023-06-14T02:50:02;10.60;99.90
21001;DHT22;10658;50.920;12.238;2023-06-14T02:54:03;10.70;99.90
21001;DHT22;10658;50.920;12.238;2023-06-14T02:58:03;10.80;99.90
21001;DHT22;10658;50.920;12.238;2023-06-14T03:02:04;10.90;99.90
21001;DHT22;10658;50.920;12.238;2023-06-14T03:06:07;10.90;99.90
21001;DHT22;10658;50.920;12.238;2023-06-14T03:10:11;10.80;99.90
21001;DHT22;10658;50.920;12.238;2023-06-14T03:14:15;10.80;99.90
21001;DHT22;10658;50.920;12.238;2023-06-14T03:18:18;10.70;99.90
21001;DHT22;10658;50.920;12.238;2023-06-14T03:22:20;10.80;99.90
21001;DHT22;10658;50.920;12.238;2023-06-14T03:26:22;10.70;99.90
21001;DHT22;10658;50.920;12.238;2023-06-14T03:30:26;10.70;99.90
21001;DHT22;10658;50.920;12.238;2023-06-14T03:34:28;10.70;99.90
21001;DHT22;10658;50.920;12.238;2023-06-14T03:38:29;10.80;99.90
21001;DHT22;10658;50.920;12.238;2023-06-14T03:42:30;11.00;99.90
21001;DHT22;10658;50.920;12.238;2023-06-14T03:46:32;11.20;99.90
21001;DHT22;10658;50.920;12.238;2023-06-14T03:50:33;11.30;99.90
21001;DHT22;10658;50.920;12.238;2023-06-14T03:54:34;11.40;99.90
21001;DHT22;10658;50.920;12.238;2023-06-14T03:58:35;11.40;99.90
21001;DHT22;10658;50.920;12.238;2023-06-14T04:02:36;11.50;99.90
21001;DHT22;10658;50.920;12.238;2023-06-14T04:06:37;11.70;99.90
21001;DHT22;10658;50.920;12.238;2023-06-14T04:10:39;11.80;99.90
21001;DHT22;10658;50.920;12.238;2023-06-14T04:14:40;12.10;99.90
21001;DHT22;10658;50.920;12.238;2023-06-14T04:18:43;12.30;99.90
21001;DHT22;10658;50.920;12.238;2023-06-14T04:22:44;12.50;99.90
21001;DHT22;10658;50.920;12.238;2023-06-14T04:26:46;12.70;99.90
21001;DHT22;10658;50.920;12.238;2023-06-14T04:30:49;12.90;99.90
21001;DHT22;10658;50.920;12.238;2023-06-14T04:34:56;13.10;99.90
21001;DHT22;10658;50.920;12.238;2023-06-14T04:39:01;13.30;99.90
21001;DHT22;10658;50.920;12.238;2023-06-14T04:43:05;13.30;99.90
21001;DHT22;10658;50.920;12.238;2023-06-14T04:47:07;13.30;99.90
21001;DHT22;10658;50.920;12.238;2023-06-14T04:51:09;13.40;99.90
21001;DHT22;10658;50.920;12.238;2023-06-14T04:55:10;13.40;99.90
21001;DHT22;10658;50.920;12.238;2023-06-14T04:59:11;13.50;99.90
21001;DHT22;10658;50.920;12.238;2023-06-14T05:03:13;13.50;99.90
21001;DHT22;10658;50.920;12.238;2023-06-14T05:07:15;13.60;99.90
21001;DHT22;10658;50.920;12.238;2023-06-14T05:11:16;13.60;99.90
21001;DHT22;10658;50.920;12.238;2023-06-14T05:15:17;13.80;99.90
21001;DHT22;10658;50.920;12.238;2023-06-14T05:19:18;13.90;99.90
21001;DHT22;10658;50.920;12.238;2023-06-14T05:23:21;14.00;99.90
21001;DHT22;10658;50.920;12.238;2023-06-14T05:27:21;14.10;99.90
21001;DHT22;10658;50.920;12.238;2023-06-14T05:31:24;14.10;99.90
21001;DHT22;10658;50.920;12.238;2023-06-14T05:35:26;14.10;99.90
21001;DHT22;10658;50.920;12.238;2023-06-14T05:39:27;14.30;99.90
21001;DHT22;10658;50.920;12.238;2023-06-14T05:43:28;14.50;99.90
21001;DHT22;10658;50.920;12.238;2023-06-14T05:47:28;14.70;99.90
21001;DHT22;10658;50.920;12.238;2023-06-14T05:51:29;14.90;99.90
21001;DHT22;10658;50.920;12.238;2023-06-14T05:55:30;14.90;99.90
21001;DHT22;10658;50.920;12.238;2023-06-14T05:59:31;15.20;99.90
21001;DHT22;10658;50.920;12.238;2023-06-14T06:03:31;15.40;99.90
21001;DHT22;10658;50.920;12.238;2023-06-14T06:07:32;15.50;99.90
21001;DHT22;10658;50.920;12.238;2023-06-14T06:11:33;15.80;99.90
21001;DHT22;10658;50.920;12.238;2023-06-14T06:15:35;16.00;99.90
21001;DHT22;10658;50.920;12.238;2023-06-14T06:19:36;16.20;99.90
21001;DHT22;10658;50.920;12.238;2023-06-14T06:23:37;16.20;99.90
21001;DHT22;10658;50.920;12.238;2023-06-14T06:27:38;16.30;99.90
21001;DHT22;10658;50.920;12.238;2023-06-14T06:31:38;16.30;99.90
21001;DHT22;10658;50.920;12.238;2023-06-14T06:35:39;16.40;99.90
21001;DHT22;10658;50.920;12.238;2023-06-14T06:39:40;16.60;99.90
21001;DHT22;10658;50.920;12.238;2023-06-14T06:43:41;16.90;99.90
21001;DHT22;10658;50.920;12.238;2023-06-14T06:47:44;17.10;99.90
21001;DHT22;10658;50.920;12.238;2023-06-14T06:51:59;17.10;99.90
21001;DHT22;10658;50.920;12.238;2023-06-14T06:56:01;17.20;99.90
21001;DHT22;10658;50.920;12.238;2023-06-14T07:00:02;17.40;99.90
21001;DHT22;10658;50.920;12.238;2023-06-14T07:04:06;17.50;99.90
21001;DHT22;10658;50.920;12.238;2023-06-14T07:08:07;17.70;99.90
21001;DHT22;10658;50.920;12.238;2023-06-14T07:12:08;17.80;99.90
21001;DHT22;10658;50.920;12.238;2023-06-14T07:16:09;17.80;99.90
21001;DHT22;10658;50.920;12.238;2023-06-14T07:20:10;18.20;99.90
21001;DHT22;10658;50.920;12.238;2023-06-14T07:24:14;18.20;99.90
21001;DHT22;10658;50.920;12.238;2023-06-14T07:28:16;18.50;99.90
21001;DHT22;10658;50.920;12.238;2023-06-14T07:32:17;18.70;99.90
21001;DHT22;10658;50.920;12.238;2023-06-14T07:36:18;18.80;99.90
21001;DHT22;10658;50.920;12.238;2023-06-14T07:40:19;19.10;99.90
21001;DHT22;10658;50.920;12.238;2023-06-14T07:44:20;19.30;99.90
21001;DHT22;10658;50.920;12.238;2023-06-14T07:48:21;19.30;99.90
21001;DHT22;10658;50.920;12.238;2023-06-14T07:52:21;18.90;99.90
21001;DHT22;10658;50.920;12.238;2023-06-14T07:56:22;19.00;99.90
21001;DHT22;10658;50.920;12.238;2023-06-14T08:00:23;19.30;99.90
21001;DHT22;10658;50.920;12.238;2023-06-14T08:04:24;19.70;99.90
21001;DHT22;10658;50.920;12.238;2023-06-14T08:08:25;19.50;99.90
21001;DHT22;10658;50.920;12.238;2023-06-14T08:12:26;19.60;99.90
21001;DHT22;10658;50.920;12.238;2023-06-14T08:16:27;19.90;99.90
21001;DHT22;10658;50.920;12.238;2023-06-14T08:20:27;20.50;99.90
21001;DHT22;10658;50.920;12.238;2023-06-14T08:24:30;20.70;99.90
21001;DHT22;10658;50.920;12.238;2023-06-14T08:28:30;20.60;99.90
21001;DHT22;10658;50.920;12.238;2023-06-14T08:32:31;20.60;99.90
21001;DHT22;10658;50.920;12.238;2023-06-14T08:36:32;20.50;99.90
21001;DHT22;10658;50.920;12.238;2023-06-14T08:40:37;20.40;99.90
21001;DHT22;10658;50.920;12.238;2023-06-14T08:44:38;20.60;99.90
21001;DHT22;10658;50.920;12.238;2023-06-14T08:48:39;20.90;99.90
21001;DHT22;10658;50.920;12.238;2023-06-14T08:52:41;21.00;99.90
21001;DHT22;10658;50.920;12.238;2023-06-14T08:56:50;21.20;99.90
21001;DHT22;10658;50.920;12.238;2023-06-14T09:00:52;21.70;99.90
21001;DHT22;10658;50.920;12.238;2023-06-14T09:04:54;21.60;99.90
21001;DHT22;10658;50.920;12.238;2023-06-14T09:08:55;21.50;99.90
21001;DHT22;10658;50.920;12.238;2023-06-14T09:13:01;21.60;99.90
21001;DHT22;10658;50.920;12.238;2023-06-14T09:17:02;21.80;99.90
21001;DHT22;10658;50.920;12.238;2023-06-14T09:21:03;21.90;99.90
21001;DHT22;10658;50.920;12.238;2023-06-14T09:25:04;22.30;99.90
21001;DHT22;10658;50.920;12.238;2023-06-14T09:29:05;22.30;99.90
21001;DHT22;10658;50.920;12.238;2023-06-14T09:33:06;22.30;99.90
21001;DHT22;10658;50.920;12.238;2023-06-14T09:37:07;22.00;99.90
21001;DHT22;10658;50.920;12.238;2023-06-14T09:41:08;22.10;99.90
21001;DHT22;10658;50.920;12.238;2023-06-14T09:45:09;22.80;99.90
21001;DHT22;10658;50.920;12.238;2023-06-14T09:49:11;23.00;99.90
21001;DHT22;10658;50.920;12.238;2023-06-14T09:53:13;22.80;99.90
21001;DHT22;10658;50.920;12.238;2023-06-14T09:57:16;22.80;99.90
21001;DHT22;10658;50.920;12.238;2023-06-14T10:01:18;22.90;99.90
21001;DHT22;10658;50.920;12.238;2023-06-14T10:05:19;22.70;99.90
21001;DHT22;10658;50.920;12.238;2023-06-14T10:09:21;22.60;99.90
21001;DHT22;10658;50.920;12.238;2023-06-14T10:13:22;22.80;99.90
21001;DHT22;10658;50.920;12.238;2023-06-14T10:17:49;23.10;99.90
21001;DHT22;10658;50.920;12.238;2023-06-14T10:22:30;23.50;99.90
21001;DHT22;10658;50.920;12.238;2023-06-14T10:26:32;23.80;99.90
21001;DHT22;10658;50.920;12.238;2023-06-14T10:30:33;22.90;99.90
21001;DHT22;10658;50.920;12.238;2023-06-14T10:34:34;22.30;99.90
21001;DHT22;10658;50.920;12.238;2023-06-14T10:38:38;22.70;99.90
21001;DHT22;10658;50.920;12.238;2023-06-14T10:42:51;23.10;99.90
21001;DHT22;10658;50.920;12.238;2023-06-14T10:46:52;23.80;99.90
21001;DHT22;10658;50.920;12.238;2023-06-14T10:51:00;23.70;99.90
21001;DHT22;10658;50.920;12.238;2023-06-14T10:55:06;24.30;99.90
21001;DHT22;10658;50.920;12.238;2023-06-14T10:59:09;25.00;99.90
21001;DHT22;10658;50.920;12.238;2023-06-14T11:11:57;23.70;99.90
21001;DHT22;10658;50.920;12.238;2023-06-14T11:15:58;23.60;99.90
21001;DHT22;10658;50.920;12.238;2023-06-14T11:20:12;23.90;99.90
21001;DHT22;10658;50.920;12.238;2023-06-14T11:24:17;24.40;99.90
21001;DHT22;10658;50.920;12.238;2023-06-14T11:28:18;24.30;99.90
21001;DHT22;10658;50.920;12.238;2023-06-14T11:32:20;23.40;99.90
21001;DHT22;10658;50.920;12.238;2023-06-14T11:36:21;23.30;99.90
21001;DHT22;10658;50.920;12.238;2023-06-14T11:40:24;22.50;99.90
21001;DHT22;10658;50.920;12.238;2023-06-14T11:44:25;21.50;99.90
21001;DHT22;10658;50.920;12.238;2023-06-14T11:48:42;21.90;99.90
21001;DHT22;10658;50.920;12.238;2023-06-14T11:52:43;22.70;99.90
21001;DHT22;10658;50.920;12.238;2023-06-14T11:56:44;23.40;99.90
21001;DHT22;10658;50.920;12.238;2023-06-14T12:00:49;23.90;99.90
21001;DHT22;10658;50.920;12.238;2023-06-14T12:04:50;24.10;99.90
21001;DHT22;10658;50.920;12.238;2023-06-14T12:08:51;24.40;99.90
21001;DHT22;10658;50.920;12.238;2023-06-14T12:12:59;24.90;99.90
21001;DHT22;10658;50.920;12.238;2023-06-14T12:17:07;24.50;99.90
21001;DHT22;10658;50.920;12.238;2023-06-14T12:21:09;24.30;99.90
21001;DHT22;10658;50.920;12.238;2023-06-14T12:25:32;24.60;99.90
21001;DHT22;10658;50.920;12.238;2023-06-14T12:29:33;24.90;99.90
21001;DHT22;10658;50.920;12.238;2023-06-14T12:33:34;24.80;99.90
21001;DHT22;10658;50.920;12.238;2023-06-14T12:37:36;24.60;99.90
21001;DHT22;10658;50.920;12.238;2023-06-14T12:41:37;24.40;99.90
21001;DHT22;10658;50.920;12.238;2023-06-14T12:45:37;24.00;99.90
21001;DHT22;10658;50.920;12.238;2023-06-14T12:49:39;24.00;99.90
21001;DHT22;10658;50.920;12.238;2023-06-14T12:53:40;23.80;99.90
21001;DHT22;10658;50.920;12.238;2023-06-14T12:57:41;23.70;99.90
21001;DHT22;10658;50.920;12.238;2023-06-14T13:01:41;23.70;99.90
21001;DHT22;10658;50.920;12.238;2023-06-14T13:05:42;23.70;99.90
21001;DHT22;10658;50.920;12.238;2023-06-14T13:09:43;23.90;99.90
21001;DHT22;10658;50.920;12.238;2023-06-14T13:13:44;24.10;99.90
21001;DHT22;10658;50.920;12.238;2023-06-14T13:17:45;24.10;99.90
21001;DHT22;10658;50.920;12.238;2023-06-14T13:21:49;24.10;99.90
21001;DHT22;10658;50.920;12.238;2023-06-14T13:25:49;24.60;99.90
21001;DHT22;10658;50.920;12.238;2023-06-14T13:29:52;24.80;99.90
21001;DHT22;10658;50.920;12.238;2023-06-14T13:33:53;24.30;99.90
21001;DHT22;10658;50.920;12.238;2023-06-14T13:37:53;24.20;99.90
21001;DHT22;10658;50.920;12.238;2023-06-14T13:41:55;24.00;99.90
21001;DHT22;10658;50.920;12.238;2023-06-14T13:45:55;24.10;99.90
21001;DHT22;10658;50.920;12.238;2023-06-14T13:49:56;24.50;99.90
21001;DHT22;10658;50.920;12.238;2023-06-14T13:53:57;24.70;99.90
21001;DHT22;10658;50.920;12.238;2023-06-14T13:57:57;24.40;99.90
21001;DHT22;10658;50.920;12.238;2023-06-14T14:01:58;24.30;99.90
21001;DHT22;10658;50.920;12.238;2023-06-14T14:06:00;24.20;99.90
21001;DHT22;10658;50.920;12.238;2023-06-14T14:10:02;24.30;99.90
21001;DHT22;10658;50.920;12.238;2023-06-14T14:14:03;24.50;99.90
21001;DHT22;10658;50.920;12.238;2023-06-14T14:18:05;24.60;99.90
21001;DHT22;10658;50.920;12.238;2023-06-14T14:22:06;24.30;99.90
21001;DHT22;10658;50.920;12.238;2023-06-14T14:26:06;23.90;99.90
21001;DHT22;10658;50.920;12.238;2023-06-14T14:30:07;23.50;99.90
21001;DHT22;10658;50.920;12.238;2023-06-14T14:34:08;23.10;99.90
21001;DHT22;10658;50.920;12.238;2023-06-14T14:38:09;22.80;99.90
21001;DHT22;10658;50.920;12.238;2023-06-14T14:42:10;22.50;99.90
21001;DHT22;10658;50.920;12.238;2023-06-14T14:46:12;22.20;99.90
21001;DHT22;10658;50.920;12.238;2023-06-14T14:50:13;22.00;99.90
21001;DHT22;10658;50.920;12.238;2023-06-14T14:54:14;21.60;99.90
21001;DHT22;10658;50.920;12.238;2023-06-14T14:58:14;21.50;99.90
21001;DHT22;10658;50.920;12.238;2023-06-14T15:02:18;22.00;99.90
21001;DHT22;10658;50.920;12.238;2023-06-14T15:06:19;22.70;99.90
21001;DHT22;10658;50.920;12.238;2023-06-14T15:10:20;22.90;99.90
21001;DHT22;10658;50.920;12.238;2023-06-14T15:14:20;23.00;99.90
21001;DHT22;10658;50.920;12.238;2023-06-14T15:18:21;23.30;99.90
21001;DHT22;10658;50.920;12.238;2023-06-14T15:22:22;23.40;99.90
21001;DHT22;10658;50.920;12.238;2023-06-14T15:26:23;23.00;99.90
21001;DHT22;10658;50.920;12.238;2023-06-14T15:30:24;22.50;99.90
21001;DHT22;10658;50.920;12.238;2023-06-14T15:34:25;21.90;99.90
21001;DHT22;10658;50.920;12.238;2023-06-14T15:38:26;21.60;99.90
21001;DHT22;10658;50.920;12.238;2023-06-14T15:42:26;22.00;99.90
21001;DHT22;10658;50.920;12.238;2023-06-14T15:46:27;22.60;99.90
21001;DHT22;10658;50.920;12.238;2023-06-14T15:50:28;23.00;99.90
21001;DHT22;10658;50.920;12.238;2023-06-14T15:54:29;23.30;99.90
21001;DHT22;10658;50.920;12.238;2023-06-14T15:58:30;23.40;99.90
21001;DHT22;10658;50.920;12.238;2023-06-14T16:02:30;23.40;99.90
21001;DHT22;10658;50.920;12.238;2023-06-14T16:06:31;23.20;99.90
21001;DHT22;10658;50.920;12.238;2023-06-14T16:10:32;23.40;99.90
21001;DHT22;10658;50.920;12.238;2023-06-14T16:14:32;23.50;99.90
21001;DHT22;10658;50.920;12.238;2023-06-14T16:18:33;23.20;99.90
21001;DHT22;10658;50.920;12.238;2023-06-14T16:22:34;23.00;99.90
21001;DHT22;10658;50.920;12.238;2023-06-14T16:26:34;23.00;99.90
21001;DHT22;10658;50.920;12.238;2023-06-14T16:30:35;23.20;99.90
21001;DHT22;10658;50.920;12.238;2023-06-14T16:34:36;23.20;99.90
21001;DHT22;10658;50.920;12.238;2023-06-14T16:38:37;23.10;99.90
21001;DHT22;10658;50.920;12.238;2023-06-14T16:42:37;23.10;99.90
21001;DHT22;10658;50.920;12.238;2023-06-14T16:46:38;23.00;99.90
21001;DHT22;10658;50.920;12.238;2023-06-14T16:50:39;22.90;99.90
21001;DHT22;10658;50.920;12.238;2023-06-14T16:54:40;22.70;99.90
21001;DHT22;10658;50.920;12.238;2023-06-14T16:58:40;22.40;99.90
21001;DHT22;10658;50.920;12.238;2023-06-14T17:02:41;22.10;99.90
21001;DHT22;10658;50.920;12.238;2023-06-14T17:06:43;22.00;99.90
21001;DHT22;10658;50.920;12.238;2023-06-14T17:10:44;21.70;99.90
21001;DHT22;10658;50.920;12.238;2023-06-14T17:14:45;21.50;99.90
21001;DHT22;10658;50.920;12.238;2023-06-14T17:18:46;21.30;99.90
21001;DHT22;10658;50.920;12.238;2023-06-14T17:22:47;21.00;99.90
21001;DHT22;10658;50.920;12.238;2023-06-14T17:26:47;20.80;99.90
21001;DHT22;10658;50.920;12.238;2023-06-14T17:30:49;20.60;99.90
21001;DHT22;10658;50.920;12.238;2023-06-14T17:34:50;20.50;99.90
21001;DHT22;10658;50.920;12.238;2023-06-14T17:38:50;20.40;99.90
21001;DHT22;10658;50.920;12.238;2023-06-14T17:42:51;20.30;99.90
21001;DHT22;10658;50.920;12.238;2023-06-14T17:46:52;20.10;99.90
21001;DHT22;10658;50.920;12.238;2023-06-14T17:50:52;20.00;99.90
21001;DHT22;10658;50.920;12.238;2023-06-14T17:54:53;19.70;99.90
21001;DHT22;10658;50.920;12.238;2023-06-14T17:58:55;19.60;99.90
21001;DHT22;10658;50.920;12.238;2023-06-14T18:02:56;19.40;99.90
21001;DHT22;10658;50.920;12.238;2023-06-14T18:06:59;19.20;99.90
21001;DHT22;10658;50.920;12.238;2023-06-14T18:11:03;19.00;99.90
21001;DHT22;10658;50.920;12.238;2023-06-14T18:15:06;18.80;99.90
21001;DHT22;10658;50.920;12.238;2023-06-14T18:19:10;18.60;99.90
21001;DHT22;10658;50.920;12.238;2023-06-14T18:23:17;18.40;99.90
21001;DHT22;10658;50.920;12.238;2023-06-14T18:27:18;18.30;99.90
21001;DHT22;10658;50.920;12.238;2023-06-14T18:31:20;18.20;99.90
21001;DHT22;10658;50.920;12.238;2023-06-14T18:35:21;18.20;99.90
21001;DHT22;10658;50.920;12.238;2023-06-14T18:39:23;18.00;99.90
21001;DHT22;10658;50.920;12.238;2023-06-14T18:43:24;18.00;99.90
21001;DHT22;10658;50.920;12.238;2023-06-14T18:47:25;17.90;99.90
21001;DHT22;10658;50.920;12.238;2023-06-14T18:51:28;17.80;99.90
21001;DHT22;10658;50.920;12.238;2023-06-14T18:55:34;17.80;99.90
21001;DHT22;10658;50.920;12.238;2023-06-14T18:59:38;17.80;99.90
21001;DHT22;10658;50.920;12.238;2023-06-14T19:03:39;17.80;99.90
21001;DHT22;10658;50.920;12.238;2023-06-14T19:07:41;17.70;99.90
21001;DHT22;10658;50.920;12.238;2023-06-14T19:11:45;17.70;99.90
21001;DHT22;10658;50.920;12.238;2023-06-14T19:15:49;17.60;99.90
21001;DHT22;10658;50.920;12.238;2023-06-14T19:19:53;17.40;99.90
21001;DHT22;10658;50.920;12.238;2023-06-14T19:23:55;17.40;99.90
21001;DHT22;10658;50.920;12.238;2023-06-14T19:27:56;17.30;99.90
21001;DHT22;10658;50.920;12.238;2023-06-14T19:31:58;17.00;99.90
21001;DHT22;10658;50.920;12.238;2023-06-14T19:35:59;16.80;99.90
21001;DHT22;10658;50.920;12.238;2023-06-14T19:40:00;16.60;99.90
21001;DHT22;10658;50.920;12.238;2023-06-14T19:44:01;16.40;99.90
21001;DHT22;10658;50.920;12.238;2023-06-14T19:48:02;16.20;99.90
21001;DHT22;10658;50.920;12.238;2023-06-14T19:52:03;16.20;99.90
21001;DHT22;10658;50.920;12.238;2023-06-14T19:56:04;16.10;99.90
21001;DHT22;10658;50.920;12.238;2023-06-14T20:00:06;16.10;99.90
21001;DHT22;10658;50.920;12.238;2023-06-14T20:04:11;16.10;99.90
21001;DHT22;10658;50.920;12.238;2023-06-14T20:08:12;16.10;99.90
21001;DHT22;10658;50.920;12.238;2023-06-14T20:12:13;16.20;99.90
21001;DHT22;10658;50.920;12.238;2023-06-14T20:16:14;15.90;99.90
21001;DHT22;10658;50.920;12.238;2023-06-14T20:20:16;15.80;99.90
21001;DHT22;10658;50.920;12.238;2023-06-14T20:24:16;15.70;99.90
21001;DHT22;10658;50.920;12.238;2023-06-14T20:28:17;15.60;99.90
21001;DHT22;10658;50.920;12.238;2023-06-14T20:32:18;15.50;99.90
21001;DHT22;10658;50.920;12.238;2023-06-14T20:36:18;15.20;99.90
21001;DHT22;10658;50.920;12.238;2023-06-14T20:40:23;15.20;99.90
21001;DHT22;10658;50.920;12.238;2023-06-14T20:44:24;15.10;99.90
21001;DHT22;10658;50.920;12.238;2023-06-14T20:48:29;15.00;99.90
21001;DHT22;10658;50.920;12.238;2023-06-14T20:52:30;14.90;99.90
21001;DHT22;10658;50.920;12.238;2023-06-14T20:56:31;14.70;99.90
21001;DHT22;10658;50.920;12.238;2023-06-14T21:00:32;14.70;99.90
21001;DHT22;10658;50.920;12.238;2023-06-14T21:04:33;14.60;99.90
21001;DHT22;10658;50.920;12.238;2023-06-14T21:08:35;14.50;99.90
21001;DHT22;10658;50.920;12.238;2023-06-14T21:12:38;14.50;99.90
21001;DHT22;10658;50.920;12.238;2023-06-14T21:16:39;14.50;99.90
21001;DHT22;10658;50.920;12.238;2023-06-14T21:20:40;14.30;99.90
21001;DHT22;10658;50.920;12.238;2023-06-14T21:24:41;14.20;99.90
21001;DHT22;10658;50.920;12.238;2023-06-14T21:28:42;14.20;99.90
21001;DHT22;10658;50.920;12.238;2023-06-14T21:32:42;14.00;99.90
21001;DHT22;10658;50.920;12.238;2023-06-14T21:36:45;14.00;99.90
21001;DHT22;10658;50.920;12.238;2023-06-14T21:40:46;13.80;99.90
21001;DHT22;10658;50.920;12.238;2023-06-14T21:44:46;13.80;99.90
21001;DHT22;10658;50.920;12.238;2023-06-14T21:48:49;13.70;99.90
21001;DHT22;10658;50.920;12.238;2023-06-14T21:52:49;13.50;99.90
21001;DHT22;10658;50.920;12.238;2023-06-14T21:56:50;13.50;99.90
21001;DHT22;10658;50.920;12.238;2023-06-14T22:00:52;13.50;99.90
21001;DHT22;10658;50.920;12.238;2023-06-14T22:04:52;13.50;99.90
21001;DHT22;10658;50.920;12.238;2023-06-14T22:08:53;13.30;99.90
21001;DHT22;10658;50.920;12.238;2023-06-14T22:12:54;13.20;99.90
21001;DHT22;10658;50.920;12.238;2023-06-14T22:16:57;13.30;99.90
21001;DHT22;10658;50.920;12.238;2023-06-14T22:20:59;13.10;99.90
21001;DHT22;10658;50.920;12.238;2023-06-14T22:25:03;12.90;99.90
21001;DHT22;10658;50.920;12.238;2023-06-14T22:29:04;12.90;99.90
21001;DHT22;10658;50.920;12.238;2023-06-14T22:33:06;12.80;99.90
21001;DHT22;10658;50.920;12.238;2023-06-14T22:37:06;12.90;99.90
21001;DHT22;10658;50.920;12.238;2023-06-14T22:41:09;12.50;99.90
21001;DHT22;10658;50.920;12.238;2023-06-14T22:45:09;12.50;99.90
21001;DHT22;10658;50.920;12.238;2023-06-14T22:49:12;12.50;99.90
21001;DHT22;10658;50.920;12.238;2023-06-14T22:53:13;12.50;99.90
21001;DHT22;10658;50.920;12.238;2023-06-14T22:57:15;12.60;99.90
21001;DHT22;10658;50.920;12.238;2023-06-14T23:01:17;12.60;99.90
21001;DHT22;10658;50.920;12.238;2023-06-14T23:05:18;12.50;99.90
21001;DHT22;10658;50.920;12.238;2023-06-14T23:09:19;12.50;99.90
21001;DHT22;10658;50.920;12.238;2023-06-14T23:13:20;12.50;99.90
21001;DHT22;10658;50.920;12.238;2023-06-14T23:17:21;12.30;99.90
21001;DHT22;10658;50.920;12.238;2023-06-14T23:21:23;12.20;99.90
21001;DHT22;10658;50.920;12.238;2023-06-14T23:25:24;12.00;99.90
21001;DHT22;10658;50.920;12.238;2023-06-14T23:29:26;12.00;99.90
21001;DHT22;10658;50.920;12.238;2023-06-14T23:33:31;12.00;99.90
21001;DHT22;10658;50.920;12.238;2023-06-14T23:37:31;12.00;99.90
21001;DHT22;10658;50.920;12.238;2023-06-14T23:41:33;12.00;99.90
21001;DHT22;10658;50.920;12.238;2023-06-14T23:45:34;11.80;99.90
21001;DHT22;10658;50.920;12.238;2023-06-14T23:49:35;11.80;99.90
21001;DHT22;10658;50.920;12.238;2023-06-14T23:53:36;11.70;99.90
21001;DHT22;10658;50.920;12.238;2023-06-14T23:57:38;11.70;99.90
